Time;durP1;ratioP1;P1;durP2;ratioP2;P2;SDS_P1;SDS_P2;PMS_P1;PMS_P2;Temp;Humidity;BMP_temperature;BMP_pressure;BME280_temperature;BME280_humidity;BME280_pressure;Samples;Min_cycle;Max_cycle;Signal;HPM_P1;HPM_P2
2022/11/25 00:01:13;;;;;;;10.93;3.78;;;;;;;;;;4932816;29;20047;-90
2022/11/25 00:03:39;;;;;;;16.98;3.72;;;;;;;6.76;100.00;67520.97;4948999;28;20061;-89
2022/11/25 00:06:09;;;;;;;15.77;3.65;;;;;;;6.78;100.00;67528.50;4946844;28;20043;-89
2022/11/25 00:08:35;;;;;;;12.02;3.95;;;;;;;6.83;100.00;67533.03;4923395;28;20104;-89
2022/11/25 00:11:04;;;;;;;15.13;3.80;;;;;;;6.83;100.00;67533.59;4950223;28;20043;-89
2022/11/25 00:13:30;;;;;;;9.93;3.00;;;;;;;6.86;100.00;67537.00;4965193;28;20043;-90
2022/11/25 00:15:59;;;;;;;12.55;3.70;;;;;;;6.90;100.00;67543.59;4942789;28;20045;-89
2022/11/25 00:18:27;;;;;;;;;;;;;;;6.92;100.00;67543.78;4922458;28;20039;-89
2022/11/25 00:20:52;;;;;;;13.68;3.78;;;;;;;6.90;100.00;67535.66;4905290;29;19915;-89
2022/11/25 00:23:18;;;;;;;12.85;3.40;;;;;;;6.95;100.00;67546.59;4913554;28;20193;-89
2022/11/25 00:25:49;;;;;;;14.15;3.83;;;;;;;6.99;100.00;67546.41;4884736;29;20044;-89
2022/11/25 00:28:29;;;;;;;12.18;3.38;;;;;;;7.04;100.00;67551.50;4896155;29;20040;-90
2022/11/25 00:31:08;;;;;;;19.27;3.92;;;;;;;7.10;100.00;67557.72;4873345;29;20048;-90
2022/11/25 00:33:39;;;;;;;11.27;3.47;;;;;;;;;;4889184;29;20041;-90
2022/11/25 00:36:13;;;;;;;18.88;3.80;;;;;;;7.16;100.00;67565.09;4894099;29;20113;-90
2022/11/25 00:39:03;;;;;;;10.75;3.10;;;;;;;7.19;100.00;67575.84;4872786;29;20042;-90
2022/11/25 00:44:34;;;;;;;9.02;2.67;;;;;;;7.25;100.00;67580.00;4879109;29;20350;-89
2022/11/25 00:47:05;;;;;;;15.15;3.65;;;;;;;7.29;100.00;67583.94;4875429;29;20053;-89
2022/11/25 00:49:31;;;;;;;14.48;4.43;;;;;;;7.33;100.00;67588.47;4891118;29;20045;-89
2022/11/25 00:51:59;;;;;;;16.45;3.88;;;;;;;;;;4875055;29;20493;-89
2022/11/25 00:54:25;;;;;;;11.30;4.15;;;;;;;;;;4868636;29;20045;-90
2022/11/25 00:56:56;;;;;;;15.90;3.88;;;;;;;7.45;100.00;67597.31;4915068;28;20055;-89
2022/11/25 00:59:24;;;;;;;12.32;2.90;;;;;;;7.48;100.00;67600.16;4911568;28;20282;-89
2022/11/25 01:01:55;;;;;;;11.25;3.22;;;;;;;7.52;100.00;67604.13;4920980;29;20043;-91
2022/11/25 01:04:28;;;;;;;14.50;3.55;;;;;;;7.56;100.00;67614.50;4922832;28;20055;-90
2022/11/25 01:06:55;;;;;;;13.30;3.38;;;;;;;;;;4895064;29;20373;-89
2022/11/25 01:09:29;;;;;;;12.50;3.83;;;;;;;7.57;100.00;67610.34;4901543;29;20040;-90
2022/11/25 01:11:55;;;;;;;12.13;2.92;;;;;;;;;;4915830;29;20450;-89
2022/11/25 01:14:21;;;;;;;12.90;3.72;;;;;;;7.64;100.00;67615.03;4942977;28;20079;-89
2022/11/25 01:16:47;;;;;;;14.00;3.88;;;;;;;;;;4912861;29;20055;-90
2022/11/25 01:19:12;;;;;;;7.28;2.50;;;;;;;;;;4962767;28;20045;-89
2022/11/25 01:21:41;;;;;;;12.02;3.20;;;;;;;7.64;100.00;67617.69;4975117;28;20194;-88
2022/11/25 01:24:13;;;;;;;14.85;3.90;;;;;;;7.62;100.00;67616.00;4972962;28;20043;-88
2022/11/25 01:26:38;;;;;;;14.18;3.20;;;;;;;;;;4982670;28;20557;-88
2022/11/25 01:29:07;;;;;;;16.05;3.58;;;;;;;7.60;100.00;67619.03;4984694;28;20031;-89
2022/11/25 01:31:35;;;;;;;10.20;3.23;;;;;;;7.60;100.00;67613.19;5011335;28;20031;-89
2022/11/25 01:34:13;;;;;;;11.85;3.28;;;;;;;7.59;100.00;67612.03;5001640;28;20031;-89
2022/11/25 01:36:41;;;;;;;18.27;4.18;;;;;;;7.59;100.00;67612.59;5002740;28;20038;-89
2022/11/25 01:39:10;;;;;;;18.13;4.25;;;;;;;7.58;100.00;67611.47;5000797;28;20049;-88
2022/11/25 01:41:35;;;;;;;10.93;2.73;;;;;;;7.63;100.00;67616.56;4973850;28;20062;-89
2022/11/25 01:44:11;;;;;;;15.98;3.92;;;;;;;7.61;100.00;67611.66;4978631;28;20829;-89
2022/11/25 01:46:48;;;;;;;20.50;3.63;;;;;;;7.61;100.00;67619.59;4971415;28;20107;-89
2022/11/25 01:49:40;;;;;;;12.98;2.88;;;;;;;7.61;100.00;67619.59;4991974;28;20046;-89
2022/11/25 01:52:20;;;;;;;16.20;3.88;;;;;;;;;;4948737;28;20493;-89
2022/11/25 01:55:10;;;;;;;13.95;3.38;;;;;;;7.62;100.00;67620.72;4988737;28;20043;-88
2022/11/25 01:58:01;;;;;;;13.73;3.42;;;;;;;;;;4948983;28;20059;-89
2022/11/25 02:00:27;;;;;;;12.75;3.50;;;;;;;7.67;100.00;67626.38;4905181;28;20074;-88
2022/11/25 02:02:54;;;;;;;15.45;3.33;;;;;;;7.66;100.00;67619.97;4938407;28;20473;-89
2022/11/25 02:05:37;;;;;;;19.48;4.10;;;;;;;;;;4928013;28;22102;-88
2022/11/25 02:08:05;;;;;;;12.23;3.65;;;;;;;;;;4921316;29;20044;-89
2022/11/25 02:10:31;;;;;;;15.95;3.75;;;;;;;;;;4933700;28;20054;-89
2022/11/25 02:13:04;;;;;;;12.18;3.47;;;;;;;7.67;100.00;67626.38;4942997;28;20051;-89
2022/11/25 02:15:33;;;;;;;14.40;3.63;;;;;;;7.65;100.00;67624.69;4918070;28;20054;-89
2022/11/25 02:17:58;;;;;;;13.15;3.30;;;;;;;7.65;100.00;67616.16;4913528;28;20110;-89
2022/11/25 02:20:27;;;;;;;14.07;3.40;;;;;;;7.64;100.00;67623.00;4943066;28;20159;-89
2022/11/25 02:23:04;;;;;;;10.73;2.78;;;;;;;7.61;100.00;67619.59;4924080;28;20142;-89
2022/11/25 02:25:31;;;;;;;15.30;3.58;;;;;;;;;;4962943;28;20063;-88
2022/11/25 02:28:03;;;;;;;13.85;4.10;;;;;;;7.54;100.00;67606.94;4946871;28;20062;-89
2022/11/25 02:30:29;;;;;;;16.35;4.35;;;;;;;7.52;100.00;67604.69;4945179;28;20164;-90
2022/11/25 02:32:59;;;;;;;14.27;4.43;;;;;;;7.52;100.00;67609.97;4944942;28;20525;-89
2022/11/25 02:35:33;;;;;;;13.13;3.53;;;;;;;7.52;100.00;67604.13;4949563;28;20050;-89
2022/11/25 02:38:16;;;;;;;11.98;3.47;;;;;;;;;;4962440;28;20066;-90
2022/11/25 02:40:50;;;;;;;12.38;3.97;;;;;;;7.50;100.00;67607.16;4954998;28;20734;-89
2022/11/25 02:43:16;;;;;;;16.98;4.25;;;;;;;;;;4953264;28;20042;-89
2022/11/25 02:46:02;;;;;;;12.77;3.53;;;;;;;7.52;100.00;67612.06;4953078;28;20047;-89
2022/11/25 02:48:36;;;;;;;17.25;3.78;;;;;;;7.50;100.00;67601.84;4932393;28;20046;-90
2022/11/25 02:51:08;;;;;;;13.00;3.40;;;;;;;;;;4899827;29;20127;-89
2022/11/25 02:53:34;;;;;;;19.00;3.97;;;;;;;;;;4908494;29;20130;-89
2022/11/25 02:56:00;;;;;;;11.27;3.10;;;;;;;7.50;100.00;67607.16;4918009;29;20601;-89
2022/11/25 02:58:25;;;;;;;18.30;4.32;;;;;;;;;;4929872;28;20040;-89
2022/11/25 03:00:54;;;;;;;12.35;3.65;;;;;;;7.54;100.00;67612.25;4927711;29;20039;-89
2022/11/25 03:03:19;;;;;;;15.00;3.83;;;;;;;7.55;100.00;67612.81;4912428;29;20043;-89
2022/11/25 03:05:45;;;;;;;12.98;3.60;;;;;;;7.57;100.00;67610.34;4886905;29;20051;-89
2022/11/25 03:08:10;;;;;;;15.40;3.63;;;;;;;;;;4889214;29;20077;-88
2022/11/25 03:10:37;;;;;;;14.05;3.78;;;;;;;7.56;100.00;67609.19;4859293;29;20052;-89
2022/11/25 03:13:03;;;;;;;15.32;3.42;;;;;;;7.57;100.00;67615.63;4876767;29;20049;-89
2022/11/25 03:15:29;;;;;;;12.57;3.38;;;;;;;7.61;100.00;67619.59;4897609;29;20139;-89
2022/11/25 03:17:54;;;;;;;14.00;3.80;;;;;;;7.61;100.00;67614.88;4919611;29;20122;-89
2022/11/25 03:20:26;;;;;;;16.00;3.90;;;;;;;7.63;100.00;67621.88;4906058;29;20067;-89
2022/11/25 03:22:51;;;;;;;11.10;3.80;;;;;;;7.66;100.00;67625.25;4913318;29;20123;-90
2022/11/25 03:25:17;;;;;;;19.48;3.90;;;;;;;;;;4904313;29;20056;-89
2022/11/25 03:27:42;;;;;;;15.40;4.03;;;;;;;;;;4929354;29;20313;-89
2022/11/25 03:30:15;;;;;;;13.85;3.80;;;;;;;7.64;100.00;67623.00;4914853;29;20166;-89
2022/11/25 03:32:43;;;;;;;11.07;3.22;;;;;;;;;;4940295;28;20063;-89
2022/11/25 03:35:13;;;;;;;19.80;4.40;;;;;;;7.59;100.00;67612.03;4948543;28;20044;-89
2022/11/25 03:37:44;;;;;;;16.67;4.85;;;;;;;7.61;100.00;67619.59;4926599;28;20551;-90
2022/11/25 03:40:10;;;;;;;17.00;4.80;;;;;;;;;;4943024;28;20046;-88
2022/11/25 03:42:36;;;;;;;15.73;4.50;;;;;;;7.63;100.00;67617.13;4937598;28;20046;-89
2022/11/25 03:45:02;;;;;;;15.60;4.00;;;;;;;;;;4866876;28;20466;-89
2022/11/25 03:47:27;;;;;;;17.20;3.65;;;;;;;;;;4867346;29;20048;-89
2022/11/25 03:49:53;;;;;;;15.63;4.78;;;;;;;;;;4917818;29;20044;-88
2022/11/25 03:52:18;;;;;;;13.07;4.28;;;;;;;7.59;100.00;67617.88;4908275;29;20040;-89
2022/11/25 03:54:44;;;;;;;18.33;3.95;;;;;;;7.61;100.00;67614.31;4906643;29;20037;-89
2022/11/25 03:57:10;;;;;;;12.35;4.28;;;;;;;;;;4897974;29;20052;-89
2022/11/25 03:59:35;;;;;;;11.30;3.95;;;;;;;7.60;100.00;67618.47;4901099;29;20046;-89
2022/11/25 04:02:01;;;;;;;16.38;3.63;;;;;;;7.60;100.00;67613.19;4934956;29;20047;-89
2022/11/25 04:04:29;;;;;;;17.77;4.32;;;;;;;;;;4900073;29;20044;-88
2022/11/25 04:06:55;;;;;;;16.98;4.80;;;;;;;;;;4904305;29;20051;-88
2022/11/25 04:09:21;;;;;;;20.45;5.57;;;;;;;7.57;100.00;67615.06;4929383;29;20392;-88
2022/11/25 04:14:30;;;;;;;21.25;4.97;;;;;;;7.58;100.00;67616.19;4892553;29;20072;-89
2022/11/25 04:16:56;;;;;;;20.52;6.93;;;;;;;;;;4893429;29;20040;-89
2022/11/25 04:19:21;;;;;;;23.20;4.82;;;;;;;7.58;100.00;67611.47;4881878;29;20049;-88
2022/11/25 04:21:47;;;;;;;14.50;4.78;;;;;;;7.56;100.00;67609.19;4881357;29;20060;-89
2022/11/25 04:24:12;;;;;;;18.23;5.63;;;;;;;7.56;100.00;67617.16;4873266;29;20109;-89
2022/11/25 04:26:37;;;;;;;21.02;5.80;;;;;;;;;;4855148;29;20049;-88
2022/11/25 04:29:03;;;;;;;14.60;4.57;;;;;;;;;;4880203;29;20055;-89
2022/11/25 04:31:28;;;;;;;15.20;5.68;;;;;;;7.54;100.00;67614.31;4882419;29;20048;-90
2022/11/25 04:33:54;;;;;;;20.85;6.57;;;;;;;7.56;100.00;67609.19;4879772;29;20124;-90
2022/11/25 04:36:19;;;;;;;19.98;6.63;;;;;;;7.57;100.00;67609.78;4881637;29;20041;-90
2022/11/25 04:38:44;;;;;;;20.65;6.72;;;;;;;7.60;100.00;67613.19;4891870;29;20352;-89
2022/11/25 04:41:10;;;;;;;20.77;5.88;;;;;;;7.62;100.00;67615.41;4877807;29;20044;-90
2022/11/25 04:43:38;;;;;;;19.48;7.50;;;;;;;7.63;100.00;67617.13;4947878;28;20520;-89
2022/11/25 04:46:04;;;;;;;25.63;6.78;;;;;;;7.64;100.00;67623.56;4974736;28;20043;-89
2022/11/25 04:48:29;;;;;;;19.63;6.18;;;;;;;;;;4976090;28;20047;-89
2022/11/25 04:50:55;;;;;;;17.67;7.20;;;;;;;7.70;100.00;67624.47;4976774;28;20074;-89
2022/11/25 04:53:20;;;;;;;19.67;6.03;;;;;;;;;;4976681;28;20039;-89
2022/11/25 04:55:45;;;;;;;21.98;7.30;;;;;;;;;;4987378;28;20200;-89
2022/11/25 04:58:11;;;;;;;22.80;8.15;;;;;;;;;;4976186;28;20449;-90
2022/11/25 05:00:36;;;;;;;16.02;7.40;;;;;;;;;;4961030;28;20038;-90
2022/11/25 05:03:02;;;;;;;20.42;6.95;;;;;;;7.73;100.00;67627.31;4953082;28;20039;-90
2022/11/25 05:05:30;;;;;;;18.20;6.85;;;;;;;;;;4919709;29;20127;-89
2022/11/25 05:07:55;;;;;;;24.20;7.93;;;;;;;;;;4914176;29;20044;-90
2022/11/25 05:10:21;;;;;;;21.42;7.55;;;;;;;7.73;100.00;67627.88;4915093;29;20917;-90
2022/11/25 05:12:46;;;;;;;21.20;7.20;;;;;;;;;;4898143;29;20056;-89
2022/11/25 05:15:12;;;;;;;21.30;7.38;;;;;;;7.73;100.00;67627.88;4897952;29;20115;-90
2022/11/25 05:17:38;;;;;;;19.60;7.50;;;;;;;7.75;100.00;67627.50;4867904;29;20055;-90
2022/11/25 05:20:04;;;;;;;24.27;8.93;;;;;;;7.75;100.00;67637.53;4870937;29;20112;-90
2022/11/25 05:22:36;;;;;;;15.25;7.05;;;;;;;7.76;100.00;67636.56;4877314;29;20567;-89
2022/11/25 05:25:04;;;;;;;18.85;7.90;;;;;;;7.77;100.00;67637.13;4880354;29;20639;-90
2022/11/25 05:27:29;;;;;;;16.50;8.52;;;;;;;7.75;100.00;67635.44;4857116;29;20057;-89
2022/11/25 05:29:57;;;;;;;25.65;9.43;;;;;;;7.75;100.00;67630.16;4862140;29;20097;-90
2022/11/25 05:32:25;;;;;;;19.23;7.38;;;;;;;7.75;100.00;67635.44;4876603;29;20120;-90
2022/11/25 05:34:50;;;;;;;21.27;8.00;;;;;;;7.75;100.00;67630.16;4827042;29;20058;-89
2022/11/25 05:37:16;;;;;;;22.98;10.02;;;;;;;7.76;100.00;67636.56;4848112;29;20041;-91
2022/11/25 05:39:49;;;;;;;22.17;9.23;;;;;;;7.74;100.00;67634.31;4834008;29;20073;-89
2022/11/25 05:42:17;;;;;;;27.30;10.30;;;;;;;7.75;100.00;67629.59;4871440;29;20129;-89
2022/11/25 05:44:50;;;;;;;17.88;8.40;;;;;;;7.74;100.00;67628.44;4881754;29;20060;-89
2022/11/25 05:47:16;;;;;;;19.77;9.00;;;;;;;7.76;100.00;67631.28;4874383;29;20431;-89
2022/11/25 05:49:44;;;;;;;26.77;10.07;;;;;;;7.75;100.00;67627.50;4822258;29;20117;-89
2022/11/25 05:52:13;;;;;;;25.45;9.95;;;;;;;7.74;100.00;67629.03;4863216;29;20125;-90
2022/11/25 05:55:05;;;;;;;26.50;11.90;;;;;;;7.72;100.00;67626.75;4838629;29;20054;-90
2022/11/25 05:57:30;;;;;;;27.08;10.82;;;;;;;;;;4835090;29;20744;-89
2022/11/25 05:59:55;;;;;;;22.75;10.25;;;;;;;7.74;100.00;67633.75;4841432;29;20076;-90
2022/11/25 06:02:27;;;;;;;26.33;11.05;;;;;;;7.74;100.00;67629.03;4830415;29;20049;-90
2022/11/25 06:05:01;;;;;;;23.27;10.50;;;;;;;7.74;100.00;67629.03;4566713;29;7715653;-90
2022/11/25 06:07:27;;;;;;;20.55;9.70;;;;;;;7.73;100.00;67627.88;4817340;29;20055;-90
2022/11/25 06:09:54;;;;;;;26.02;9.82;;;;;;;7.72;100.00;67634.69;4791303;29;20050;-91
2022/11/25 06:12:28;;;;;;;22.05;8.68;;;;;;;;;;4767860;29;20047;-90
2022/11/25 06:14:56;;;;;;;17.17;8.18;;;;;;;;;;4747336;29;20054;-91
2022/11/25 06:17:24;;;;;;;20.57;8.17;;;;;;;;;;4295106;30;8232622;-90
2022/11/25 06:19:55;;;;;;;20.60;7.25;;;;;;;;;;4557272;30;3034145;-90
2022/11/25 06:22:31;;;;;;;20.40;8.80;;;;;;;7.75;100.00;67634.88;4687365;29;2134088;-89
2022/11/25 06:25:06;;;;;;;20.50;8.85;;;;;;;7.72;100.00;67626.75;4166956;29;11511162;-89
2022/11/25 06:27:35;;;;;;;18.69;7.61;;;;;;;7.73;100.00;67627.88;4222445;29;7617337;-90
2022/11/25 06:30:00;;;;;;;23.85;8.90;;;;;;;;;;4485944;30;4117427;-90
2022/11/25 06:32:52;;;;;;;18.67;7.68;;;;;;;;;;4700181;29;8835579;-90
2022/11/25 06:35:28;;;;;;;24.52;9.10;;;;;;;7.78;100.00;67638.84;4758867;29;20269;-90
2022/11/25 06:38:05;;;;;;;20.33;8.60;;;;;;;7.77;100.00;67632.41;4773706;29;20063;-90
2022/11/25 06:40:30;;;;;;;19.73;9.75;;;;;;;;;;4799377;29;20051;-90
2022/11/25 06:43:11;;;;;;;16.80;8.15;;;;;;;7.77;100.00;67632.41;4848481;29;20124;-91
2022/11/25 06:45:43;;;;;;;17.88;8.10;;;;;;;7.75;100.00;67635.44;4814986;29;20041;-90
2022/11/25 06:48:11;;;;;;;21.30;9.63;;;;;;;;;;4847763;29;20570;-90
2022/11/25 06:50:56;;;;;;;25.05;9.73;;;;;;;7.73;100.00;67627.88;4842321;29;20049;-90
2022/11/25 06:53:22;;;;;;;17.45;8.98;;;;;;;;;;4820933;29;20076;-91
2022/11/25 06:55:50;;;;;;;17.05;9.40;;;;;;;;;;4841811;29;20809;-89
2022/11/25 06:58:36;;;;;;;;;;;;;;;;;;;;;
2022/11/25 07:01:20;;;;;;;24.30;9.65;;;;;;;7.72;100.00;67631.50;4828780;29;20110;-90
2022/11/25 07:03:55;;;;;;;29.58;9.70;;;;;;;7.71;100.00;67630.94;4788801;29;20043;-90
2022/11/25 07:06:34;;;;;;;20.63;10.65;;;;;;;7.71;100.00;67625.03;5015341;27;20399;-82
2022/11/25 07:09:00;;;;;;;19.90;9.15;;;;;;;7.70;100.00;67621.84;5049722;28;20060;-82
2022/11/25 07:11:28;;;;;;;21.17;9.63;;;;;;;7.69;100.00;67618.06;5050017;28;20048;-82
2022/11/25 07:13:57;;;;;;;21.97;10.37;;;;;;;7.70;100.00;67632.44;5041000;28;20405;-82
2022/11/25 07:16:22;;;;;;;23.65;8.88;;;;;;;;;;5042789;28;20302;-82
2022/11/25 07:18:48;;;;;;;22.45;8.48;;;;;;;7.71;100.00;67625.03;5043266;28;20048;-82
2022/11/25 07:21:15;;;;;;;21.02;9.43;;;;;;;;;;5038777;28;20087;-82
2022/11/25 07:23:40;;;;;;;27.25;10.02;;;;;;;;;;5046277;28;20439;-82
2022/11/25 07:26:12;;;;;;;17.52;10.38;;;;;;;7.73;100.00;67625.22;5047418;28;20033;-82
2022/11/25 07:28:38;;;;;;;22.50;10.52;;;;;;;7.74;100.00;67629.03;5046778;28;20475;-82
2022/11/25 07:31:12;;;;;;;20.40;9.30;;;;;;;7.74;100.00;67633.75;5045054;28;20116;-82
2022/11/25 07:33:37;;;;;;;19.02;8.07;;;;;;;7.75;100.00;67635.44;5043027;28;20053;-82
2022/11/25 07:36:08;;;;;;;19.40;9.18;;;;;;;7.78;100.00;67632.97;5052037;28;20040;-82
2022/11/25 07:38:34;;;;;;;20.00;8.30;;;;;;;7.76;100.00;67631.28;5056767;28;20033;-82
2022/11/25 07:41:13;;;;;;;20.60;9.45;;;;;;;7.78;100.00;67638.84;5062460;28;20073;-82
2022/11/25 07:43:39;;;;;;;19.57;9.20;;;;;;;7.81;100.00;67636.38;5044409;28;20067;-82
2022/11/25 07:46:12;;;;;;;19.80;8.07;;;;;;;;;;5062752;28;20036;-82
2022/11/25 07:48:38;;;;;;;15.40;6.97;;;;;;;7.82;100.00;67643.34;5041765;28;20072;-84
2022/11/25 07:51:03;;;;;;;19.33;8.52;;;;;;;7.83;100.00;67639.22;5033585;28;20045;-83
2022/11/25 07:53:44;;;;;;;17.77;7.82;;;;;;;7.83;100.00;67638.66;5045254;28;20041;-83
2022/11/25 07:56:10;;;;;;;18.85;7.82;;;;;;;7.84;100.00;67639.78;4993254;28;20141;-82
2022/11/25 07:58:44;;;;;;;17.10;8.18;;;;;;;7.84;100.00;67637.13;5025087;28;20105;-84
2022/11/25 08:01:18;;;;;;;18.13;7.88;;;;;;;7.87;100.00;67643.72;5016440;28;20045;-84
2022/11/25 08:03:46;;;;;;;16.92;7.95;;;;;;;;;;5011917;28;20042;-84
2022/11/25 08:06:24;;;;;;;22.38;8.20;;;;;;;7.91;100.00;67656.22;5026710;28;20218;-84
2022/11/25 08:09:14;;;;;;;16.70;7.05;;;;;;;7.93;100.00;67654.69;5022946;28;20037;-84
2022/11/25 08:11:40;;;;;;;16.02;6.93;;;;;;;7.95;100.00;67656.97;5021911;28;20361;-84
2022/11/25 08:14:09;;;;;;;17.80;7.38;;;;;;;;;;5020443;28;20508;-83
2022/11/25 08:16:37;;;;;;;14.93;6.93;;;;;;;7.95;100.00;67652.22;5021928;28;20051;-84
2022/11/25 08:19:04;;;;;;;19.63;7.97;;;;;;;;;;5010015;28;20168;-84
2022/11/25 08:21:29;;;;;;;19.63;7.40;;;;;;;7.94;100.00;67650.53;5010959;28;20066;-84
2022/11/25 08:23:55;;;;;;;17.25;7.82;;;;;;;;;;5017611;28;20068;-83
2022/11/25 08:26:38;;;;;;;15.40;6.40;;;;;;;;;;5008682;28;20038;-84
2022/11/25 08:29:05;;;;;;;14.15;5.55;;;;;;;7.97;100.00;67654.50;4998265;28;20050;-84
2022/11/25 08:31:34;;;;;;;15.90;7.85;;;;;;;7.99;100.00;67654.09;5031625;28;20068;-83
2022/11/25 08:34:01;;;;;;;15.20;6.20;;;;;;;8.01;100.00;67659.00;5032178;28;20049;-83
2022/11/25 08:36:29;;;;;;;15.75;6.47;;;;;;;;;;5034360;28;20034;-84
2022/11/25 08:38:58;;;;;;;13.35;6.60;;;;;;;;;;5044450;28;20144;-84
2022/11/25 08:41:31;;;;;;;17.17;6.32;;;;;;;;;;5033197;28;20049;-84
2022/11/25 08:43:58;;;;;;;14.48;6.65;;;;;;;8.06;100.00;67661.47;5034138;28;20777;-84
2022/11/25 08:46:26;;;;;;;19.63;7.53;;;;;;;;;;5031156;28;20049;-84
2022/11/25 08:48:52;;;;;;;19.85;6.60;;;;;;;8.11;100.00;67669.75;5031367;28;20288;-84
2022/11/25 08:51:23;;;;;;;14.65;5.32;;;;;;;8.12;100.00;67668.81;5030946;28;20095;-83
2022/11/25 08:53:51;;;;;;;15.35;6.20;;;;;;;;;;5047469;28;20046;-84
2022/11/25 08:56:19;;;;;;;16.27;5.93;;;;;;;8.17;100.00;67681.88;5027345;28;20211;-84
2022/11/25 08:58:44;;;;;;;16.83;6.72;;;;;;;8.22;100.00;67687.53;5033977;28;20045;-84
2022/11/25 09:01:11;;;;;;;14.20;6.40;;;;;;;8.23;100.00;67682.78;5022759;28;20084;-84
2022/11/25 09:03:40;;;;;;;16.95;7.07;;;;;;;8.26;100.00;67684.13;5012347;28;20189;-84
2022/11/25 09:06:06;;;;;;;12.00;6.50;;;;;;;;;;5037292;28;20106;-82
2022/11/25 09:08:32;;;;;;;13.32;6.13;;;;;;;8.33;100.00;67700.00;5035046;28;20510;-83
2022/11/25 09:10:59;;;;;;;13.77;6.07;;;;;;;8.39;100.00;67705.69;5034372;28;20137;-82
2022/11/25 09:13:24;;;;;;;14.82;6.18;;;;;;;8.40;100.00;67702.09;5028280;28;20045;-82
2022/11/25 09:15:50;;;;;;;15.68;5.22;;;;;;;8.43;100.00;67704.91;5041611;28;20328;-82
2022/11/25 09:18:17;;;;;;;11.95;4.90;;;;;;;;;;5040245;28;20037;-81
2022/11/25 09:20:43;;;;;;;12.10;4.55;;;;;;;;;;5042493;28;20068;-82
2022/11/25 09:23:08;;;;;;;15.35;5.43;;;;;;;8.48;100.00;67711.13;5041745;28;20144;-83
2022/11/25 09:25:35;;;;;;;13.73;5.03;;;;;;;8.54;100.00;67722.66;5031307;28;20056;-83
2022/11/25 09:28:00;;;;;;;11.10;5.55;;;;;;;8.56;100.00;67724.94;5029171;28;20041;-83
2022/11/25 09:30:26;;;;;;;13.85;5.43;;;;;;;8.64;100.00;67728.13;5031323;28;20052;-83
2022/11/25 09:32:53;;;;;;;12.18;5.25;;;;;;;8.65;100.00;67735.13;5027930;28;20068;-83
2022/11/25 09:35:18;;;;;;;12.15;4.43;;;;;;;8.65;100.00;67729.25;5027610;28;20544;-83
2022/11/25 09:37:44;;;;;;;10.90;4.07;;;;;;;;;;5029791;28;20040;-83
2022/11/25 09:40:20;;;;;;;10.63;4.47;;;;;;;;;;5026149;28;20124;-83
2022/11/25 09:49:29;;;;;;;10.95;3.97;;;;;;;8.74;100.00;67740.00;5023372;28;20126;-83
2022/11/25 09:52:15;;;;;;;10.40;4.07;;;;;;;8.76;100.00;67739.63;5013997;28;20095;-83
2022/11/25 09:55:03;;;;;;;11.63;3.80;;;;;;;8.79;100.00;67743.03;5030082;28;20045;-83
2022/11/25 09:57:43;;;;;;;9.68;4.50;;;;;;;8.85;100.00;67749.25;5033696;28;20496;-82
2022/11/25 10:00:14;;;;;;;6.78;3.30;;;;;;;8.88;100.00;67752.09;5029337;28;20420;-83
2022/11/25 10:03:02;;;;;;;8.45;3.55;;;;;;;8.92;100.00;67756.63;5032940;28;20113;-83
2022/11/25 10:06:06;;;;;;;7.40;3.65;;;;;;;9.02;100.00;67776.50;5001765;28;20042;-83
2022/11/25 10:08:36;;;;;;;10.98;2.80;;;;;;;;;;5039738;28;20050;-83
2022/11/25 10:11:10;;;;;;;8.77;3.58;;;;;;;9.02;100.00;67770.63;5026167;28;20048;-83
2022/11/25 10:14:24;;;;;;;11.25;3.03;;;;;;;9.07;100.00;67773.06;5030331;28;20044;-83
2022/11/25 10:16:52;;;;;;;8.80;2.78;;;;;;;;;;5026772;28;20076;-83
2022/11/25 10:19:59;;;;;;;8.10;3.35;;;;;;;9.10;100.00;67777.03;5025457;28;20098;-83
2022/11/25 10:22:29;;;;;;;9.50;3.08;;;;;;;9.08;100.00;67782.72;5003245;28;20069;-83
2022/11/25 10:25:00;;;;;;;9.75;3.05;;;;;;;9.15;100.00;67785.34;5012129;28;20045;-83
2022/11/25 10:27:55;;;;;;;12.00;3.30;;;;;;;9.26;100.00;67797.25;5033706;28;20412;-83
2022/11/25 10:30:27;;;;;;;10.98;4.00;;;;;;;9.27;100.00;67798.94;5023158;28;20577;-82
2022/11/25 10:32:53;;;;;;;5.18;2.72;;;;;;;;;;5030172;28;20049;-82
2022/11/25 10:35:27;;;;;;;10.88;2.97;;;;;;;9.34;100.00;67805.75;5031808;28;20045;-83
2022/11/25 10:37:55;;;;;;;9.82;3.15;;;;;;;9.36;100.00;67802.72;5025092;28;20524;-83
2022/11/25 10:40:21;;;;;;;8.25;2.80;;;;;;;;;;5024649;28;20542;-82
2022/11/25 10:42:47;;;;;;;10.02;3.22;;;;;;;9.46;100.00;67819.91;5028261;28;20053;-83
2022/11/25 10:45:12;;;;;;;7.22;2.72;;;;;;;9.48;100.00;67821.63;5031902;28;20053;-83
2022/11/25 10:47:49;;;;;;;7.18;2.40;;;;;;;9.51;100.00;67830.34;5018192;28;20045;-83
2022/11/25 10:50:14;;;;;;;10.02;3.15;;;;;;;9.59;100.00;67839.41;5041972;28;20071;-82
2022/11/25 10:52:47;;;;;;;11.90;3.58;;;;;;;9.61;100.00;67836.38;5033415;28;20045;-83
2022/11/25 10:55:30;;;;;;;9.02;2.95;;;;;;;9.66;100.00;67839.38;5017422;28;20153;-82
2022/11/25 10:57:57;;;;;;;11.13;2.42;;;;;;;9.63;100.00;67835.41;5008953;28;20074;-83
2022/11/25 11:00:42;;;;;;;9.90;3.00;;;;;;;9.63;100.00;67835.97;5009093;28;20075;-82
2022/11/25 11:03:21;;;;;;;10.82;3.00;;;;;;;9.70;100.00;67846.56;5005908;28;20058;-82
2022/11/25 11:05:49;;;;;;;8.23;2.90;;;;;;;9.75;100.00;67851.66;5014186;28;20060;-82
2022/11/25 11:08:22;;;;;;;6.20;2.78;;;;;;;9.76;100.00;67849.59;5027923;28;20049;-82
2022/11/25 11:11:10;;;;;;;8.45;3.03;;;;;;;9.77;100.00;67851.28;5022776;28;20041;-82
2022/11/25 11:13:36;;;;;;;8.02;3.00;;;;;;;9.87;100.00;67870.59;5020530;28;20041;-82
2022/11/25 11:16:02;;;;;;;10.35;2.97;;;;;;;9.85;100.00;67867.75;5020181;28;20386;-83
2022/11/25 11:18:37;;;;;;;11.57;3.28;;;;;;;9.86;100.00;67864.13;5027077;28;20124;-83
2022/11/25 11:21:05;;;;;;;10.95;3.45;;;;;;;9.93;100.00;67872.09;5015875;28;20099;-83
2022/11/25 11:23:30;;;;;;;8.52;2.92;;;;;;;9.87;100.00;67865.28;5027408;28;20048;-83
2022/11/25 11:25:58;;;;;;;10.20;3.20;;;;;;;10.01;100.00;67877.94;5038973;28;20424;-83
2022/11/25 11:28:35;;;;;;;10.60;2.95;;;;;;;9.98;100.00;67877.19;5020379;28;20050;-82
2022/11/25 11:31:17;;;;;;;11.95;4.65;;;;;;;10.05;100.00;67889.88;5024504;28;20132;-82
2022/11/25 11:33:46;;;;;;;12.50;3.67;;;;;;;10.01;100.00;67877.94;5014560;28;20542;-82
2022/11/25 11:36:14;;;;;;;12.13;3.70;;;;;;;;;;5021984;28;20509;-82
2022/11/25 11:38:51;;;;;;;9.38;3.95;;;;;;;10.04;100.00;67883.41;5014888;28;20052;-83
2022/11/25 11:41:42;;;;;;;11.90;5.13;;;;;;;10.11;100.00;67891.94;5017557;28;20064;-83
2022/11/25 11:44:26;;;;;;;10.35;4.18;;;;;;;10.27;100.00;67909.53;5032554;28;20046;-83
2022/11/25 11:47:16;;;;;;;11.02;4.28;;;;;;;10.45;100.00;67926.72;5028260;28;20517;-82
2022/11/25 11:49:45;;;;;;;12.43;4.22;;;;;;;;;;5045231;28;20405;-83
2022/11/25 11:52:19;;;;;;;11.60;3.77;;;;;;;;;;5024624;28;20403;-83
2022/11/25 11:54:51;;;;;;;14.00;4.05;;;;;;;10.45;100.00;67929.41;5030364;28;20088;-82
2022/11/25 11:57:19;;;;;;;13.85;4.55;;;;;;;10.50;100.00;67932.41;5030660;28;20037;-82
2022/11/25 11:59:47;;;;;;;10.32;3.47;;;;;;;;;;5022932;28;20071;-82
2022/11/25 12:02:15;;;;;;;9.52;3.25;;;;;;;;;;5013593;28;20062;-82
2022/11/25 12:04:50;;;;;;;12.30;3.67;;;;;;;10.75;100.00;67959.63;5013045;28;20045;-83
2022/11/25 12:07:40;;;;;;;10.48;3.88;;;;;;;10.79;100.00;67964.19;5021065;28;20098;-83
2022/11/25 12:10:14;;;;;;;11.15;3.55;;;;;;;10.81;99.73;67969.66;5021648;28;20405;-83
2022/11/25 12:12:55;;;;;;;9.38;3.63;;;;;;;10.83;99.78;67969.28;5024828;28;20251;-83
2022/11/25 12:15:32;;;;;;;12.80;3.67;;;;;;;;;;5028604;28;20041;-83
2022/11/25 12:18:01;;;;;;;7.55;3.58;;;;;;;;;;5027092;28;20598;-82
2022/11/25 12:21:16;;;;;;;8.70;3.10;;;;;;;10.91;99.20;67985.22;5025458;28;20459;-83
2022/11/25 12:24:03;;;;;;;6.13;2.90;;;;;;;11.00;99.73;67990.69;4982692;28;20053;-83
2022/11/25 12:26:41;;;;;;;7.97;3.00;;;;;;;11.04;99.64;67995.22;5024081;28;20529;-83
2022/11/25 12:29:09;;;;;;;8.05;3.13;;;;;;;;;;5014669;28;20590;-82
2022/11/25 12:31:49;;;;;;;9.43;3.35;;;;;;;11.07;99.14;67998.63;5027535;28;20084;-82
2022/11/25 12:34:30;;;;;;;8.70;3.03;;;;;;;11.10;98.57;68001.44;5026293;28;20435;-82
2022/11/25 12:37:01;;;;;;;8.60;2.95;;;;;;;;;;5022704;28;20037;-82
2022/11/25 12:39:29;;;;;;;10.38;3.33;;;;;;;11.14;97.54;68005.44;5031296;28;20575;-82
2022/11/25 12:41:58;;;;;;;6.30;2.65;;;;;;;;;;5025490;28;20030;-82